Time;durP1;ratioP1;P1;durP2;ratioP2;P2;SDS_P1;SDS_P2;PMS_P1;PMS_P2;Temp;Humidity;BMP_temperature;BMP_pressure;BME280_temperature;BME280_humidity;BME280_pressure;Samples;Min_cycle;Max_cycle;Signal;HPM_P1;HPM_P2
2022/08/30 00:05:16;;;;;;;9.90;6.95;;;20.20;99.90;;;;;;10492023;28;20043;-76
2022/08/30 00:10:18;;;;;;;11.25;6.40;;;20.30;99.90;;;;;;10522364;28;20049;-74
2022/08/30 00:15:21;;;;;;;10.05;6.40;;;20.30;99.90;;;;;;10518165;28;20486;-75
2022/08/30 00:20:28;;;;;;;8.80;6.57;;;20.30;99.90;;;;;;10543811;28;20052;-77
2022/08/30 00:25:31;;;;;;;9.90;6.40;;;20.10;99.90;;;;;;10512641;28;20044;-73
2022/08/30 00:30:33;;;;;;;9.75;6.90;;;19.90;99.90;;;;;;10549274;28;20044;-75
2022/08/30 00:35:38;;;;;;;10.25;6.93;;;19.90;99.90;;;;;;10542401;28;20048;-76
2022/08/30 00:40:43;;;;;;;10.40;6.25;;;20.00;99.90;;;;;;10529701;28;20048;-74
2022/08/30 00:45:46;;;;;;;22.67;14.95;;;20.00;99.90;;;;;;10542032;28;20093;-73
2022/08/30 00:50:54;;;;;;;18.90;11.85;;;20.00;99.90;;;;;;10519358;28;20045;-77
2022/08/30 00:55:59;;;;;;;13.85;6.68;;;20.00;99.90;;;;;;10523831;28;20043;-76
2022/08/30 01:01:03;;;;;;;9.07;6.30;;;19.90;99.90;;;;;;10517279;28;20059;-75
2022/08/30 01:06:07;;;;;;;10.02;6.05;;;19.90;99.90;;;;;;10514182;28;20123;-75
2022/08/30 01:11:11;;;;;;;9.52;6.40;;;19.80;99.90;;;;;;10539653;28;20485;-74
2022/08/30 01:16:13;;;;;;;8.88;6.47;;;19.90;99.90;;;;;;10537377;28;20486;-74
2022/08/30 01:21:24;;;;;;;9.05;6.80;;;19.70;99.90;;;;;;10526908;28;20414;-75
2022/08/30 01:26:30;;;;;;;9.77;6.57;;;19.70;99.90;;;;;;10518010;28;20700;-74
2022/08/30 01:31:35;;;;;;;11.27;6.97;;;19.70;99.90;;;;;;10540530;28;20452;-77
2022/08/30 01:36:41;;;;;;;10.48;6.63;;;19.70;99.90;;;;;;10517120;28;20048;-74
2022/08/30 01:41:45;;;;;;;10.77;6.53;;;19.60;99.90;;;;;;10515263;28;20060;-76
2022/08/30 01:46:48;;;;;;;10.43;6.75;;;19.60;99.90;;;;;;10545526;28;20048;-76
2022/08/30 01:51:50;;;;;;;9.48;6.25;;;19.40;99.90;;;;;;10526811;28;20040;-76
2022/08/30 01:56:53;;;;;;;12.45;6.50;;;19.30;99.90;;;;;;10546104;28;20044;-77
2022/08/30 02:01:55;;;;;;;12.75;6.60;;;19.10;99.90;;;;;;10533412;28;20515;-75
2022/08/30 02:06:57;;;;;;;10.00;6.28;;;19.10;99.90;;;;;;10504305;28;20044;-75
2022/08/30 02:12:01;;;;;;;14.07;6.35;;;19.00;99.90;;;;;;10502131;28;20040;-74
2022/08/30 02:17:03;;;;;;;10.98;6.55;;;19.10;99.90;;;;;;10505440;28;20048;-74
2022/08/30 02:22:06;;;;;;;9.10;6.22;;;19.20;99.90;;;;;;10536245;28;20441;-76
2022/08/30 02:27:09;;;;;;;9.32;6.30;;;19.20;99.90;;;;;;10540069;28;20047;-76
2022/08/30 02:32:11;;;;;;;10.50;6.82;;;19.20;99.90;;;;;;10539846;28;20044;-76
2022/08/30 02:37:14;;;;;;;10.40;6.68;;;19.20;99.90;;;;;;10526411;28;20055;-74
2022/08/30 02:42:17;;;;;;;10.32;6.28;;;19.20;99.90;;;;;;10537552;28;20412;-73
2022/08/30 02:47:19;;;;;;;8.82;5.80;;;19.00;99.90;;;;;;10532047;28;20048;-76
2022/08/30 02:52:22;;;;;;;9.90;6.53;;;19.00;99.90;;;;;;10544742;28;20097;-76
2022/08/30 02:57:25;;;;;;;10.05;5.90;;;19.00;99.90;;;;;;10547951;28;20107;-75
2022/08/30 03:02:29;;;;;;;10.20;6.30;;;18.90;99.90;;;;;;10532264;28;20044;-75
2022/08/30 03:07:31;;;;;;;8.43;6.20;;;18.70;99.90;;;;;;10539853;28;20062;-77
2022/08/30 03:12:35;;;;;;;11.43;6.32;;;18.60;99.90;;;;;;10535546;28;20055;-75
2022/08/30 03:17:37;;;;;;;9.15;6.40;;;18.60;99.90;;;;;;10541243;28;20048;-74
2022/08/30 03:22:39;;;;;;;9.02;6.25;;;18.70;99.90;;;;;;10546260;28;20048;-75
2022/08/30 03:27:42;;;;;;;10.27;7.00;;;18.70;99.90;;;;;;10540961;28;20417;-78
2022/08/30 03:32:45;;;;;;;12.13;7.13;;;18.60;99.90;;;;;;10536281;28;20044;-76
2022/08/30 03:37:48;;;;;;;13.43;7.47;;;18.60;99.90;;;;;;10522631;28;20052;-75
2022/08/30 03:42:51;;;;;;;13.57;7.18;;;18.60;99.90;;;;;;10505561;28;20410;-75
2022/08/30 03:47:53;;;;;;;10.55;6.75;;;18.60;99.90;;;;;;10507282;28;20383;-78
2022/08/30 03:52:55;;;;;;;11.40;6.60;;;18.60;99.90;;;;;;10505981;28;20067;-76
2022/08/30 03:57:59;;;;;;;10.55;6.63;;;18.40;99.90;;;;;;10535366;28;20044;-78
2022/08/30 04:03:01;;;;;;;20.73;11.15;;;18.30;99.90;;;;;;10521952;28;20044;-78
2022/08/30 04:08:04;;;;;;;44.20;25.92;;;18.30;99.90;;;;;;10542129;28;20486;-77
2022/08/30 04:13:07;;;;;;;12.13;8.52;;;18.30;99.90;;;;;;10510293;28;20044;-75
2022/08/30 04:18:10;;;;;;;9.20;7.00;;;18.40;99.90;;;;;;10509183;28;20504;-78
2022/08/30 04:23:12;;;;;;;9.13;6.47;;;18.20;99.90;;;;;;10532517;28;20189;-75
2022/08/30 04:28:15;;;;;;;10.95;6.65;;;18.20;99.90;;;;;;10551959;28;20048;-77
2022/08/30 04:33:18;;;;;;;9.13;6.85;;;18.00;99.90;;;;;;10535134;28;20051;-75
2022/08/30 04:38:20;;;;;;;14.13;8.48;;;17.80;99.90;;;;;;10561018;28;20075;-77
2022/08/30 04:43:25;;;;;;;12.80;9.45;;;17.60;99.90;;;;;;10562895;28;20055;-75
2022/08/30 04:48:28;;;;;;;14.65;7.80;;;17.50;99.90;;;;;;10537552;28;20098;-77
2022/08/30 04:53:30;;;;;;;10.65;8.52;;;17.60;99.90;;;;;;10573556;28;20123;-74
2022/08/30 04:58:33;;;;;;;14.27;9.77;;;17.70;99.90;;;;;;10570622;28;20071;-75
2022/08/30 05:03:35;;;;;;;12.75;9.77;;;17.70;99.90;;;;;;10532399;28;20054;-77
2022/08/30 05:08:37;;;;;;;11.00;8.35;;;17.70;99.90;;;;;;10519684;28;20394;-77
2022/08/30 05:13:41;;;;;;;10.98;7.97;;;17.60;99.90;;;;;;10551567;28;20050;-77
2022/08/30 05:18:44;;;;;;;11.45;8.00;;;17.80;99.90;;;;;;10536643;28;20056;-77
2022/08/30 05:23:46;;;;;;;12.25;8.20;;;17.90;99.90;;;;;;10514504;28;20444;-78
2022/08/30 05:28:50;;;;;;;11.25;7.75;;;18.00;99.90;;;;;;10507264;28;20048;-75
2022/08/30 05:33:53;;;;;;;11.55;7.85;;;18.00;99.90;;;;;;10508139;28;20052;-77
2022/08/30 05:38:56;;;;;;;12.43;8.75;;;18.00;99.90;;;;;;10507476;28;20056;-77
2022/08/30 05:44:03;;;;;;;11.77;8.43;;;18.10;99.90;;;;;;10507739;28;20044;-75
2022/08/30 05:49:07;;;;;;;11.23;8.10;;;18.20;99.90;;;;;;10544119;28;20470;-75
2022/08/30 05:54:10;;;;;;;12.80;8.40;;;18.20;99.90;;;;;;10542726;28;20044;-75
2022/08/30 05:59:15;;;;;;;12.20;9.07;;;18.20;99.90;;;;;;10518655;28;20044;-77
2022/08/30 06:04:17;;;;;;;11.05;8.35;;;18.30;99.90;;;;;;10500932;28;20052;-76
2022/08/30 06:09:19;;;;;;;10.93;8.15;;;18.30;99.90;;;;;;10500053;28;20052;-77
2022/08/30 06:14:23;;;;;;;10.13;7.70;;;18.40;99.90;;;;;;10499411;28;20422;-74
2022/08/30 06:19:25;;;;;;;12.95;8.20;;;18.40;99.90;;;;;;10499728;28;20044;-78
2022/08/30 06:24:27;;;;;;;12.18;8.05;;;18.50;99.90;;;;;;10499416;28;20060;-76
2022/08/30 06:29:30;;;;;;;13.18;8.10;;;18.60;99.90;;;;;;10530697;28;20137;-76
2022/08/30 06:34:33;;;;;;;13.57;8.55;;;18.70;99.90;;;;;;10539770;28;20044;-76
2022/08/30 06:39:36;;;;;;;13.45;8.93;;;18.70;99.90;;;;;;10501098;28;20044;-77
2022/08/30 06:44:42;;;;;;;12.60;9.15;;;18.80;99.90;;;;;;10542211;28;20058;-74
2022/08/30 06:49:44;;;;;;;16.50;10.48;;;18.90;99.90;;;;;;10548352;28;20109;-77
2022/08/30 06:54:46;;;;;;;13.15;9.13;;;18.80;99.90;;;;;;10517905;28;20505;-74
2022/08/30 06:59:49;;;;;;;12.85;9.07;;;18.90;99.90;;;;;;10501286;28;20051;-77
2022/08/30 07:04:52;;;;;;;14.80;9.68;;;19.00;99.90;;;;;;10507623;28;20482;-75
2022/08/30 07:09:54;;;;;;;13.68;10.55;;;19.00;99.90;;;;;;10541995;28;20044;-76
2022/08/30 07:14:58;;;;;;;14.32;11.32;;;19.10;99.90;;;;;;10552186;28;20052;-76
2022/08/30 07:20:00;;;;;;;15.40;11.43;;;19.10;99.90;;;;;;10542015;28;20074;-75
2022/08/30 07:25:02;;;;;;;14.55;9.90;;;19.10;99.90;;;;;;10542663;28;20071;-77
2022/08/30 07:30:08;;;;;;;17.58;10.80;;;19.30;99.90;;;;;;10540650;28;20052;-78
2022/08/30 07:35:10;;;;;;;14.98;9.98;;;19.50;99.90;;;;;;10539635;28;20048;-79
2022/08/30 07:40:13;;;;;;;14.70;10.05;;;19.50;99.90;;;;;;10507202;28;20056;-78
2022/08/30 07:45:17;;;;;;;13.93;9.77;;;19.60;99.90;;;;;;10535926;28;20514;-76
2022/08/30 07:50:19;;;;;;;14.63;9.00;;;19.80;99.90;;;;;;10540078;28;20044;-77
2022/08/30 07:55:21;;;;;;;16.38;9.52;;;20.00;99.90;;;;;;10540618;28;20052;-77
2022/08/30 08:00:26;;;;;;;14.88;9.20;;;20.10;99.90;;;;;;10539603;28;20055;-77
2022/08/30 08:05:28;;;;;;;12.60;8.80;;;20.30;99.90;;;;;;10541845;28;20048;-76
2022/08/30 08:10:30;;;;;;;10.65;7.22;;;21.00;99.90;;;;;;10539531;28;20051;-76
2022/08/30 08:15:34;;;;;;;12.80;7.90;;;21.00;99.90;;;;;;10541422;28;20048;-75
2022/08/30 08:20:36;;;;;;;13.43;8.60;;;21.00;99.90;;;;;;10544220;28;20044;-76
2022/08/30 08:25:40;;;;;;;11.10;7.93;;;21.00;99.90;;;;;;10543424;28;20048;-77
2022/08/30 08:30:44;;;;;;;10.88;8.13;;;21.10;99.90;;;;;;10506265;28;20521;-77
2022/08/30 08:35:47;;;;;;;12.75;7.93;;;21.20;99.90;;;;;;10505220;28;20056;-76
2022/08/30 08:41:02;;;;;;;9.48;6.93;;;21.30;99.90;;;;;;10544778;28;20052;-76
2022/08/30 08:46:12;;;;;;;12.82;8.15;;;21.40;99.90;;;;;;10512419;28;20053;-75
2022/08/30 08:56:39;;;;;;;12.55;7.78;;;21.70;99.90;;;;;;10502125;28;20052;-77
2022/08/30 09:01:42;;;;;;;10.45;7.10;;;21.80;99.90;;;;;;10514752;28;20044;-79
2022/08/30 09:06:54;;;;;;;9.38;7.10;;;21.90;99.90;;;;;;10554963;28;20052;-76
2022/08/30 09:11:56;;;;;;;11.40;7.40;;;22.00;99.90;;;;;;10550798;28;20051;-75
2022/08/30 09:17:02;;;;;;;10.63;7.55;;;22.20;99.90;;;;;;10574191;28;20115;-77
2022/08/30 09:22:14;;;;;;;10.60;7.30;;;22.20;99.90;;;;;;10524785;28;20098;-77
2022/08/30 09:27:29;;;;;;;8.45;6.18;;;22.40;99.90;;;;;;10518863;28;20048;-78
2022/08/30 09:32:39;;;;;;;12.70;7.60;;;22.50;99.90;;;;;;10509124;28;20102;-77
2022/08/30 09:37:52;;;;;;;10.55;7.50;;;22.70;99.90;;;;;;10511626;28;20135;-78
2022/08/30 09:43:06;;;;;;;11.18;6.88;;;22.80;99.70;;;;;;10513127;28;20494;-77
2022/08/30 09:48:32;;;;;;;11.60;6.40;;;22.90;99.10;;;;;;10506755;28;20410;-78
2022/08/30 09:53:38;;;;;;;10.13;5.70;;;23.10;99.00;;;;;;10469166;28;20064;-76
2022/08/30 09:59:02;;;;;;;8.10;6.45;;;23.20;98.80;;;;;;10467250;28;20045;-77
2022/08/30 10:04:19;;;;;;;9.18;6.15;;;23.40;98.10;;;;;;10498813;28;20459;-75
2022/08/30 10:09:32;;;;;;;9.48;6.13;;;23.70;97.80;;;;;;10546401;28;20505;-79
2022/08/30 10:14:52;;;;;;;10.02;6.10;;;23.70;97.60;;;;;;10543088;28;20617;-83
2022/08/30 10:20:09;;;;;;;7.90;5.43;;;23.90;96.70;;;;;;10538019;28;20055;-77
2022/08/30 10:25:17;;;;;;;8.25;5.30;;;24.00;95.80;;;;;;10511812;28;20055;-77
2022/08/30 10:30:19;;;;;;;7.53;5.32;;;24.10;94.60;;;;;;10511585;28;20060;-78
2022/08/30 10:35:26;;;;;;;7.72;5.07;;;24.30;94.20;;;;;;10506253;28;20040;-78
2022/08/30 10:45:59;;;;;;;8.65;4.95;;;24.50;92.70;;;;;;10530147;28;20051;-80
2022/08/30 10:51:10;;;;;;;6.22;4.70;;;24.60;92.50;;;;;;10538837;28;20051;-78
2022/08/30 10:56:17;;;;;;;7.32;4.80;;;24.90;91.40;;;;;;10526729;28;20406;-78
2022/08/30 11:01:33;;;;;;;6.13;4.40;;;25.00;89.90;;;;;;10494362;28;20048;-78
2022/08/30 11:06:44;;;;;;;6.43;4.10;;;25.20;88.70;;;;;;10500898;28;20060;-78
2022/08/30 11:12:09;;;;;;;6.43;4.45;;;25.40;86.70;;;;;;10501769;28;20048;-79
2022/08/30 11:17:29;;;;;;;6.10;4.10;;;25.60;83.50;;;;;;10512115;28;20374;-79
2022/08/30 11:22:36;;;;;;;6.30;4.40;;;25.60;82.00;;;;;;10540744;28;20052;-77
2022/08/30 11:27:52;;;;;;;6.78;4.28;;;25.70;82.40;;;;;;10546444;28;20052;-78
2022/08/30 11:33:00;;;;;;;6.25;4.50;;;26.00;83.50;;;;;;10530315;28;20052;-77
2022/08/30 11:38:19;;;;;;;6.72;4.25;;;26.10;81.60;;;;;;10493541;28;20414;-76
2022/08/30 11:43:54;;;;;;;6.07;4.20;;;26.20;79.10;;;;;;10493069;28;20048;-78
2022/08/30 11:49:04;;;;;;;7.50;4.30;;;26.20;77.50;;;;;;10494187;28;20551;-77
2022/08/30 11:54:22;;;;;;;5.80;4.35;;;26.40;80.20;;;;;;10492798;28;20103;-78
2022/08/30 11:59:34;;;;;;;8.75;4.45;;;26.50;77.40;;;;;;10500442;28;20052;-78
2022/08/30 12:04:44;;;;;;;7.13;4.38;;;26.50;76.30;;;;;;10564617;28;20147;-74
2022/08/30 12:10:05;;;;;;;8.23;4.15;;;26.60;75.80;;;;;;10573608;28;20044;-74
2022/08/30 12:15:26;;;;;;;7.72;3.80;;;26.70;75.50;;;;;;10537327;28;20077;-75
2022/08/30 12:20:39;;;;;;;7.97;4.22;;;26.80;77.00;;;;;;10499953;28;20071;-74
2022/08/30 12:25:42;;;;;;;6.28;4.18;;;26.90;75.80;;;;;;10503468;28;20056;-73
2022/08/30 12:30:45;;;;;;;7.47;4.15;;;27.00;74.30;;;;;;10519085;28;20052;-73
2022/08/30 12:35:47;;;;;;;7.63;3.97;;;27.20;75.70;;;;;;10530441;28;20059;-78
2022/08/30 12:40:55;;;;;;;5.47;4.10;;;27.40;72.80;;;;;;10563971;28;20058;-74
2022/08/30 12:46:02;;;;;;;5.40;3.85;;;27.40;71.80;;;;;;10547870;28;20044;-75
2022/08/30 12:51:06;;;;;;;6.30;4.03;;;27.50;73.60;;;;;;10543039;28;20465;-74
2022/08/30 12:56:12;;;;;;;6.15;3.90;;;27.80;71.10;;;;;;10539755;28;20075;-73
2022/08/30 13:01:26;;;;;;;6.03;4.32;;;28.00;71.60;;;;;;10536461;28;20048;-77
2022/08/30 13:06:44;;;;;;;6.10;3.70;;;28.20;69.60;;;;;;10571680;28;20052;-74
2022/08/30 13:11:50;;;;;;;5.07;3.80;;;28.40;69.60;;;;;;10571222;28;20056;-77
2022/08/30 13:17:11;;;;;;;8.27;4.17;;;28.60;67.70;;;;;;10571309;28;20058;-74
2022/08/30 13:22:29;;;;;;;7.07;3.85;;;28.90;66.90;;;;;;10572136;28;20481;-74
2022/08/30 13:27:36;;;;;;;4.80;3.75;;;28.90;65.60;;;;;;10540956;28;20440;-75
2022/08/30 13:32:38;;;;;;;4.93;3.57;;;29.30;64.30;;;;;;10541111;28;20052;-74
2022/08/30 13:37:42;;;;;;;5.43;4.00;;;29.70;63.60;;;;;;10540281;28;20054;-75
2022/08/30 13:42:46;;;;;;;5.63;4.10;;;29.90;65.90;;;;;;10519351;28;20044;-74
2022/08/30 13:47:49;;;;;;;11.10;7.78;;;30.30;65.30;;;;;;10544849;28;20133;-77
2022/08/30 13:52:51;;;;;;;5.95;3.72;;;30.30;64.10;;;;;;10541088;28;20493;-76
2022/08/30 13:57:55;;;;;;;7.22;5.28;;;29.80;64.50;;;;;;10505995;28;20044;-76
2022/08/30 14:02:57;;;;;;;6.60;3.70;;;29.50;64.10;;;;;;10505679;28;20052;-77
2022/08/30 14:07:59;;;;;;;5.50;3.83;;;29.40;62.90;;;;;;10494628;28;20433;-78
2022/08/30 14:13:04;;;;;;;6.65;3.92;;;29.30;64.60;;;;;;10494550;28;20048;-77
2022/08/30 14:18:10;;;;;;;6.85;3.80;;;29.20;64.00;;;;;;10529723;28;20050;-77
2022/08/30 14:23:12;;;;;;;5.60;3.90;;;29.30;62.60;;;;;;10535059;28;20071;-76
2022/08/30 14:28:15;;;;;;;5.95;3.50;;;29.20;63.60;;;;;;10503800;28;20091;-76
2022/08/30 14:33:17;;;;;;;6.85;3.80;;;29.10;61.90;;;;;;10493175;28;20048;-76
2022/08/30 14:38:19;;;;;;;5.82;3.55;;;29.00;62.20;;;;;;10493267;28;20053;-76
2022/08/30 14:43:23;;;;;;;5.55;3.90;;;28.90;63.80;;;;;;10493360;28;20063;-75
2022/08/30 14:48:25;;;;;;;5.65;3.75;;;28.90;66.10;;;;;;10536558;28;20044;-75
2022/08/30 14:53:27;;;;;;;5.93;3.67;;;28.90;66.70;;;;;;10504068;28;20048;-76
2022/08/30 14:58:30;;;;;;;6.68;3.95;;;28.90;65.80;;;;;;10493515;28;20036;-75
2022/08/30 15:03:33;;;;;;;6.00;3.78;;;29.00;66.90;;;;;;10501364;28;20052;-76
2022/08/30 15:08:36;;;;;;;7.03;3.67;;;29.00;65.00;;;;;;10502694;28;20055;-75
2022/08/30 15:13:43;;;;;;;6.25;3.70;;;29.10;63.60;;;;;;10491605;28;20051;-75
2022/08/30 15:18:45;;;;;;;7.65;4.55;;;29.20;62.60;;;;;;10492698;28;20044;-75
2022/08/30 15:23:47;;;;;;;9.05;4.50;;;29.50;61.60;;;;;;10493211;28;20044;-76
2022/08/30 15:28:51;;;;;;;6.63;3.58;;;29.70;61.30;;;;;;10493743;28;20419;-73
2022/08/30 15:33:54;;;;;;;5.05;3.55;;;29.60;61.00;;;;;;10496227;28;20439;-73
2022/08/30 15:38:58;;;;;;;6.50;3.95;;;29.40;61.80;;;;;;10501369;28;20071;-73
2022/08/30 15:44:02;;;;;;;4.85;3.40;;;29.40;62.20;;;;;;10513455;28;20482;-75
2022/08/30 15:49:06;;;;;;;4.88;3.42;;;29.60;61.50;;;;;;10499467;28;20444;-74
2022/08/30 15:54:09;;;;;;;5.50;3.65;;;29.70;61.10;;;;;;10516219;28;20051;-76
2022/08/30 15:59:16;;;;;;;5.80;3.47;;;29.70;61.70;;;;;;10542533;28;20146;-75
2022/08/30 16:04:18;;;;;;;7.57;3.83;;;29.90;62.00;;;;;;10518849;28;20106;-75
2022/08/30 16:09:20;;;;;;;6.25;3.85;;;30.00;60.60;;;;;;10541458;28;20055;-76
2022/08/30 16:14:24;;;;;;;5.43;3.53;;;29.90;59.40;;;;;;10530016;28;20055;-75
2022/08/30 16:19:27;;;;;;;5.45;3.35;;;29.80;60.10;;;;;;10495382;28;20544;-75
2022/08/30 16:24:29;;;;;;;7.05;4.00;;;29.60;61.40;;;;;;10501521;28;20106;-75
2022/08/30 16:29:33;;;;;;;6.60;4.00;;;29.40;60.70;;;;;;10505957;28;20048;-75
2022/08/30 16:34:35;;;;;;;7.00;3.90;;;29.20;61.90;;;;;;10505833;28;20048;-75
2022/08/30 16:39:37;;;;;;;6.63;4.22;;;29.00;62.20;;;;;;10487897;28;20064;-74
2022/08/30 16:44:40;;;;;;;8.77;4.50;;;28.90;64.40;;;;;;10509309;28;20044;-76
2022/08/30 16:49:42;;;;;;;7.03;4.28;;;28.80;64.90;;;;;;10511046;28;20067;-77
2022/08/30 16:54:45;;;;;;;6.65;4.10;;;28.60;66.00;;;;;;10528254;28;20051;-77
2022/08/30 16:59:48;;;;;;;7.80;4.30;;;28.60;67.20;;;;;;10541277;28;20066;-75
2022/08/30 17:04:50;;;;;;;7.18;4.43;;;28.50;67.90;;;;;;10504564;28;20052;-75
2022/08/30 17:09:52;;;;;;;6.22;4.43;;;28.50;68.10;;;;;;10506478;28;20383;-78
2022/08/30 17:14:55;;;;;;;6.97;4.78;;;28.40;67.90;;;;;;10495308;28;20063;-77
2022/08/30 17:19:57;;;;;;;7.55;4.65;;;28.20;69.00;;;;;;10496825;28;20060;-76
2022/08/30 17:25:00;;;;;;;6.28;4.60;;;28.10;69.40;;;;;;10495605;28;20048;-74
2022/08/30 17:30:05;;;;;;;6.68;4.03;;;28.00;70.90;;;;;;10497363;28;20059;-77
2022/08/30 17:35:08;;;;;;;6.28;4.03;;;27.80;69.60;;;;;;10496289;28;20049;-74
2022/08/30 17:40:11;;;;;;;28.67;20.17;;;27.70;71.30;;;;;;10536786;28;20067;-75
2022/08/30 17:45:16;;;;;;;21.50;15.23;;;27.40;72.40;;;;;;10510609;28;20057;-73
2022/08/30 17:50:19;;;;;;;8.70;5.80;;;27.30;72.20;;;;;;10497282;28;20059;-76
2022/08/30 17:55:21;;;;;;;6.07;4.50;;;27.20;73.70;;;;;;10456938;28;20106;-75
2022/08/30 18:00:24;;;;;;;8.10;4.47;;;27.10;73.70;;;;;;10456004;28;20049;-74
2022/08/30 18:05:27;;;;;;;7.30;4.28;;;26.90;73.60;;;;;;10477826;28;20052;-76
2022/08/30 18:10:29;;;;;;;7.05;4.40;;;26.80;74.90;;;;;;10496303;28;20051;-76
2022/08/30 18:15:32;;;;;;;7.60;4.20;;;26.70;75.70;;;;;;10496780;28;20051;-74
2022/08/30 18:20:34;;;;;;;6.22;4.30;;;26.40;76.60;;;;;;10490384;28;20048;-76
2022/08/30 18:25:37;;;;;;;6.38;4.63;;;26.20;77.20;;;;;;10495578;28;20052;-73
2022/08/30 18:30:40;;;;;;;6.35;4.50;;;26.10;78.50;;;;;;10500151;28;20047;-77
2022/08/30 18:35:42;;;;;;;10.35;4.60;;;26.00;79.10;;;;;;10497260;28;20051;-75
2022/08/30 18:40:47;;;;;;;8.35;4.47;;;25.80;80.70;;;;;;10496958;28;20072;-75
2022/08/30 18:45:50;;;;;;;8.27;4.47;;;25.70;81.20;;;;;;10484762;28;20052;-75
2022/08/30 18:50:52;;;;;;;8.38;4.93;;;25.60;80.80;;;;;;10512214;28;20431;-74
2022/08/30 18:55:55;;;;;;;9.52;5.18;;;25.10;84.20;;;;;;10509349;28;20114;-75
2022/08/30 19:00:58;;;;;;;8.65;5.00;;;25.10;85.90;;;;;;10532226;28;20428;-76
2022/08/30 19:06:03;;;;;;;9.20;4.95;;;25.00;86.20;;;;;;10491784;28;20044;-76
2022/08/30 19:11:06;;;;;;;18.20;10.20;;;24.70;87.20;;;;;;10520245;28;20048;-73
2022/08/30 19:16:09;;;;;;;19.52;12.10;;;24.80;87.30;;;;;;10534224;28;20508;-74
2022/08/30 19:21:11;;;;;;;12.40;7.97;;;24.70;87.60;;;;;;10501439;28;20055;-74
2022/08/30 19:26:13;;;;;;;13.48;5.05;;;24.80;88.30;;;;;;10506771;28;20055;-74
2022/08/30 19:31:17;;;;;;;7.72;4.88;;;24.60;87.80;;;;;;10494299;28;20048;-74
2022/08/30 19:36:20;;;;;;;9.57;4.47;;;24.70;88.50;;;;;;10508775;28;20048;-78
2022/08/30 19:41:22;;;;;;;8.90;4.80;;;24.70;85.20;;;;;;10523646;28;20062;-77
2022/08/30 19:46:25;;;;;;;7.53;4.93;;;24.60;88.10;;;;;;10515257;28;20592;-74
2022/08/30 19:51:27;;;;;;;8.30;4.95;;;24.50;87.60;;;;;;10494031;28;20059;-74
2022/08/30 19:56:30;;;;;;;7.50;4.53;;;24.40;88.60;;;;;;10517332;28;20595;-76
2022/08/30 20:01:33;;;;;;;7.78;4.68;;;24.20;87.70;;;;;;10528446;28;20044;-75
2022/08/30 20:06:36;;;;;;;8.00;5.45;;;24.10;88.30;;;;;;10492451;28;20188;-76
2022/08/30 20:11:41;;;;;;;8.63;5.25;;;24.00;90.00;;;;;;10492916;28;20049;-74
2022/08/30 20:16:46;;;;;;;9.23;4.93;;;23.90;90.20;;;;;;10511981;28;20048;-75
2022/08/30 20:21:48;;;;;;;7.95;5.22;;;23.70;89.20;;;;;;10536696;28;20051;-74
2022/08/30 20:26:50;;;;;;;9.60;5.43;;;23.60;90.60;;;;;;10516698;28;20056;-75
2022/08/30 20:31:54;;;;;;;8.75;5.57;;;23.40;91.40;;;;;;10499772;28;20072;-75
2022/08/30 20:36:58;;;;;;;8.35;5.07;;;23.30;91.40;;;;;;10529119;28;20063;-74
2022/08/30 20:42:00;;;;;;;6.95;5.30;;;23.20;91.50;;;;;;10540203;28;20080;-73
2022/08/30 20:47:04;;;;;;;8.60;5.20;;;23.10;92.20;;;;;;10531894;28;20482;-74
2022/08/30 20:52:06;;;;;;;8.35;4.68;;;23.10;92.40;;;;;;10518211;28;20051;-75
2022/08/30 20:57:08;;;;;;;6.78;5.10;;;23.00;92.00;;;;;;10518325;28;20051;-75
2022/08/30 21:02:12;;;;;;;7.43;5.03;;;23.00;92.40;;;;;;10532279;28;20044;-76
2022/08/30 21:07:14;;;;;;;9.18;4.88;;;23.00;92.40;;;;;;10535693;28;20048;-75
2022/08/30 21:12:16;;;;;;;7.40;5.15;;;22.90;92.10;;;;;;10541425;28;20059;-75
2022/08/30 21:17:19;;;;;;;7.78;5.30;;;22.90;92.60;;;;;;10541256;28;20490;-74
2022/08/30 21:22:22;;;;;;;6.90;4.75;;;22.90;92.50;;;;;;10524791;28;20049;-73
2022/08/30 21:27:24;;;;;;;9.88;5.28;;;22.90;92.30;;;;;;10502682;28;20048;-75
2022/08/30 21:32:27;;;;;;;7.90;4.78;;;22.80;90.80;;;;;;10531739;28;20048;-74
2022/08/30 21:37:30;;;;;;;9.48;5.20;;;22.70;89.70;;;;;;10544045;28;20375;-75
2022/08/30 21:42:32;;;;;;;7.95;4.53;;;22.80;89.70;;;;;;10519347;28;20379;-77
2022/08/30 21:47:35;;;;;;;8.55;5.07;;;22.80;89.30;;;;;;10533048;28;20071;-74
2022/08/30 21:52:37;;;;;;;10.15;4.88;;;22.70;88.40;;;;;;10542833;28;20051;-74
2022/08/30 21:57:39;;;;;;;7.47;4.90;;;22.60;89.10;;;;;;10527082;28;20049;-76
2022/08/30 22:02:43;;;;;;;9.43;5.10;;;22.60;89.30;;;;;;10533560;28;20044;-74
2022/08/30 22:07:45;;;;;;;8.70;4.75;;;22.60;90.30;;;;;;10532220;28;20044;-74
2022/08/30 22:12:50;;;;;;;8.10;4.95;;;22.60;90.00;;;;;;10514531;28;20524;-75
2022/08/30 22:17:53;;;;;;;10.63;4.75;;;22.50;89.60;;;;;;10503924;28;20083;-74
2022/08/30 22:22:55;;;;;;;6.50;4.43;;;22.40;89.70;;;;;;10511782;28;20049;-75
2022/08/30 22:27:58;;;;;;;7.45;4.60;;;22.40;90.00;;;;;;10545986;28;20047;-75
2022/08/30 22:33:01;;;;;;;8.85;4.80;;;22.40;90.60;;;;;;10541883;28;20118;-74
2022/08/30 22:38:04;;;;;;;6.97;4.55;;;22.40;90.50;;;;;;10542413;28;20055;-75
2022/08/30 22:43:06;;;;;;;7.18;4.60;;;22.50;90.70;;;;;;10542304;28;20492;-75
2022/08/30 22:48:10;;;;;;;8.32;4.50;;;22.50;90.60;;;;;;10540198;28;20054;-74
2022/08/30 22:53:12;;;;;;;8.00;4.72;;;22.50;89.00;;;;;;10539643;28;20055;-74
2022/08/30 22:58:17;;;;;;;5.93;4.07;;;22.50;90.00;;;;;;10514364;28;20051;-76
2022/08/30 23:03:21;;;;;;;7.65;4.60;;;22.60;90.60;;;;;;10539727;28;20050;-75
2022/08/30 23:08:23;;;;;;;8.23;4.60;;;22.50;90.10;;;;;;10536753;28;20055;-76
2022/08/30 23:13:25;;;;;;;9.15;4.45;;;22.60;90.60;;;;;;10539939;28;20052;-74
2022/08/30 23:18:28;;;;;;;6.60;4.50;;;22.60;90.10;;;;;;10533505;28;20052;-76
